createdAt,value
2018-03-24T00:00:39.357Z,39.89
2018-03-24T00:01:39.370Z,39.78
2018-03-24T00:02:39.401Z,39.68
2018-03-24T00:03:39.394Z,39.86
2018-03-24T00:04:39.367Z,39.8
2018-03-24T00:05:39.367Z,39.71
2018-03-24T00:06:39.346Z,39.88
2018-03-24T00:07:39.389Z,39.81
2018-03-24T00:08:39.361Z,39.69
2018-03-24T00:09:39.370Z,39.9
2018-03-24T00:10:39.386Z,39.8
2018-03-24T00:11:39.410Z,39.73
2018-03-24T00:12:39.369Z,39.87
2018-03-24T00:13:39.362Z,39.83
2018-03-24T00:14:39.371Z,39.69
2018-03-24T00:15:39.386Z,39.84
2018-03-24T00:16:39.380Z,39.76
2018-03-24T00:17:39.360Z,39.73
2018-03-24T00:18:39.398Z,39.91
2018-03-24T00:19:39.367Z,39.79
2018-03-24T00:20:39.352Z,39.75
2018-03-24T00:21:39.367Z,39.9
2018-03-24T00:22:39.372Z,39.81
2018-03-24T00:23:39.362Z,39.7
2018-03-24T00:24:39.429Z,39.89
2018-03-24T00:25:39.352Z,39.76
2018-03-24T00:26:39.500Z,39.72
2018-03-24T00:27:39.366Z,39.91
2018-03-24T00:28:39.354Z,39.77
2018-03-24T00:29:39.377Z,39.71
2018-03-24T00:30:39.365Z,39.89
2018-03-24T00:31:39.334Z,39.84
2018-03-24T00:32:39.346Z,39.77
2018-03-24T00:33:39.380Z,39.87
2018-03-24T00:34:39.375Z,39.8
2018-03-24T00:35:39.380Z,39.75
2018-03-24T00:36:39.352Z,39.92
2018-03-24T00:37:39.371Z,39.85
2018-03-24T00:38:39.362Z,39.77
2018-03-24T00:39:39.375Z,39.93
2018-03-24T00:40:39.369Z,39.82
2018-03-24T00:41:39.404Z,39.76
2018-03-24T00:42:39.351Z,39.96
2018-03-24T00:43:39.355Z,39.86
2018-03-24T00:44:39.428Z,39.73
2018-03-24T00:45:39.345Z,39.96
2018-03-24T00:46:39.346Z,39.87
2018-03-24T00:47:39.362Z,39.75
2018-03-24T00:48:39.352Z,39.97
2018-03-24T00:49:39.383Z,39.87
2018-03-24T00:50:39.416Z,39.7
2018-03-24T00:51:39.403Z,39.89
2018-03-24T00:52:39.361Z,39.82
2018-03-24T00:53:39.384Z,39.78
2018-03-24T00:54:39.346Z,39.97
2018-03-24T00:55:39.345Z,39.79
2018-03-24T00:56:39.354Z,39.8
2018-03-24T00:57:39.372Z,39.94
2018-03-24T00:58:39.350Z,39.84
2018-03-24T00:59:39.359Z,39.76
2018-03-24T01:00:39.391Z,39.96
2018-03-24T01:01:39.389Z,39.86
2018-03-24T01:02:39.365Z,39.79
2018-03-24T01:03:39.413Z,39.95
2018-03-24T01:04:39.408Z,39.81
2018-03-24T01:05:39.622Z,39.79
2018-03-24T01:06:39.380Z,39.95
2018-03-24T01:07:39.411Z,39.82
2018-03-24T01:08:39.367Z,39.76
2018-03-24T01:09:39.360Z,39.91
2018-03-24T01:10:39.646Z,39.87
2018-03-24T01:11:39.416Z,39.8
2018-03-24T01:12:39.351Z,40.01
2018-03-24T01:13:39.420Z,39.89
2018-03-24T01:14:39.373Z,39.8
2018-03-24T01:15:39.382Z,40
2018-03-24T01:16:39.314Z,39.9
2018-03-24T01:17:39.366Z,39.77
2018-03-24T01:18:39.350Z,39.97
2018-03-24T01:19:39.346Z,39.9
2018-03-24T01:20:39.395Z,39.79
2018-03-24T01:21:39.354Z,39.88
2018-03-24T01:22:39.323Z,39.81
2018-03-24T01:23:39.337Z,39.71
2018-03-24T01:24:39.321Z,39.88
2018-03-24T01:25:39.364Z,39.81
2018-03-24T01:26:39.328Z,39.72
2018-03-24T01:27:39.376Z,39.91
2018-03-24T01:28:39.316Z,39.84
2018-03-24T01:29:39.338Z,39.78
2018-03-24T01:30:39.382Z,39.92
2018-03-24T01:31:39.364Z,39.87
2018-03-24T01:32:39.344Z,39.77
2018-03-24T01:33:39.400Z,39.89
2018-03-24T01:34:39.347Z,39.87
2018-03-24T01:35:39.344Z,39.8
2018-03-24T01:36:39.409Z,39.93
2018-03-24T01:37:39.372Z,39.92
2018-03-24T01:38:39.371Z,39.83
2018-03-24T01:39:39.355Z,39.93
2018-03-24T01:40:39.363Z,39.84
2018-03-24T01:41:39.320Z,39.81
2018-03-24T01:42:39.348Z,39.96
2018-03-24T01:43:39.354Z,39.84
2018-03-24T01:44:39.336Z,39.71
2018-03-24T01:45:39.324Z,39.89
2018-03-24T01:46:39.358Z,39.82
2018-03-24T01:47:39.377Z,39.75
2018-03-24T01:48:39.341Z,39.94
2018-03-24T01:49:39.338Z,39.8
2018-03-24T01:50:39.362Z,39.74
2018-03-24T01:51:39.341Z,39.89
2018-03-24T01:52:39.368Z,39.85
2018-03-24T01:53:39.339Z,39.83
2018-03-24T01:54:39.338Z,39.9
2018-03-24T01:55:39.338Z,39.85
2018-03-24T01:56:39.319Z,39.78
2018-03-24T01:57:39.349Z,39.86
2018-03-24T01:58:39.341Z,39.84
2018-03-24T01:59:39.375Z,39.75
2018-03-24T02:00:39.352Z,39.92
2018-03-24T02:01:39.386Z,39.91
2018-03-24T02:02:39.362Z,39.75
2018-03-24T02:03:39.323Z,39.95
2018-03-24T02:04:39.359Z,39.85
2018-03-24T02:05:39.332Z,39.76
2018-03-24T02:06:39.351Z,39.85
2018-03-24T02:07:39.358Z,39.87
2018-03-24T02:08:39.326Z,39.79
2018-03-24T02:09:39.333Z,39.98
2018-03-24T02:10:39.343Z,39.88
2018-03-24T02:11:39.325Z,39.75
2018-03-24T02:12:39.338Z,39.94
2018-03-24T02:13:39.352Z,39.88
2018-03-24T02:14:39.337Z,39.81
2018-03-24T02:15:39.376Z,39.95
2018-03-24T02:16:39.355Z,39.85
2018-03-24T02:17:39.374Z,39.8
2018-03-24T02:18:39.357Z,40.03
2018-03-24T02:19:39.347Z,39.93
2018-03-24T02:20:39.351Z,39.82
2018-03-24T02:21:39.362Z,39.95
2018-03-24T02:22:39.350Z,39.91
2018-03-24T02:23:39.336Z,39.78
2018-03-24T02:24:39.320Z,39.94
2018-03-24T02:25:39.351Z,39.82
2018-03-24T02:26:39.318Z,39.73
2018-03-24T02:27:39.445Z,39.98
2018-03-24T02:28:39.369Z,39.86
2018-03-24T02:29:39.345Z,39.77
2018-03-24T02:30:39.333Z,39.97
2018-03-24T02:31:39.353Z,39.87
2018-03-24T02:32:39.404Z,39.79
2018-03-24T02:33:39.387Z,39.99
2018-03-24T02:34:39.348Z,39.86
2018-03-24T02:35:39.340Z,39.78
2018-03-24T02:36:39.336Z,39.93
2018-03-24T02:37:39.365Z,39.88
2018-03-24T02:38:39.313Z,39.73
2018-03-24T02:39:39.341Z,39.93
2018-03-24T02:40:39.363Z,39.87
2018-03-24T02:41:39.351Z,39.74
2018-03-24T02:42:39.344Z,39.93
2018-03-24T02:43:39.346Z,39.87
2018-03-24T02:44:39.339Z,39.77
2018-03-24T02:45:39.394Z,39.89
2018-03-24T02:46:39.395Z,39.94
2018-03-24T02:47:39.345Z,39.86
2018-03-24T02:48:39.366Z,39.99
2018-03-24T02:49:39.362Z,39.95
2018-03-24T02:50:39.331Z,39.81
2018-03-24T02:51:39.336Z,39.92
2018-03-24T02:52:39.349Z,39.86
2018-03-24T02:53:39.397Z,39.81
2018-03-24T02:54:39.345Z,39.93
2018-03-24T02:55:39.362Z,39.93
2018-03-24T02:56:39.399Z,39.78
2018-03-24T02:57:39.345Z,39.9
2018-03-24T02:58:39.351Z,39.91
2018-03-24T02:59:39.373Z,39.79
2018-03-24T03:00:39.336Z,39.9
2018-03-24T03:01:39.338Z,39.85
2018-03-24T03:02:39.335Z,39.77
2018-03-24T03:03:39.342Z,39.92
2018-03-24T03:04:39.769Z,39.85
2018-03-24T03:05:39.359Z,39.8
2018-03-24T03:06:39.348Z,39.93
2018-03-24T03:07:39.349Z,39.87
2018-03-24T03:08:39.325Z,39.8
2018-03-24T03:09:39.343Z,39.97
2018-03-24T03:10:39.338Z,39.83
2018-03-24T03:11:39.342Z,39.78
2018-03-24T03:12:39.380Z,39.96
2018-03-24T03:13:39.330Z,39.92
2018-03-24T03:14:39.292Z,39.83
2018-03-24T03:15:39.337Z,39.95
2018-03-24T03:16:39.325Z,39.86
2018-03-24T03:17:39.327Z,39.8
2018-03-24T03:18:39.315Z,39.94
2018-03-24T03:19:39.326Z,39.91
2018-03-24T03:20:39.318Z,39.81
2018-03-24T03:21:39.627Z,39.94
2018-03-24T03:22:39.332Z,39.88
2018-03-24T03:23:39.321Z,39.77
2018-03-24T03:24:39.335Z,39.92
2018-03-24T03:25:39.398Z,39.91
2018-03-24T03:26:39.329Z,39.82
2018-03-24T03:27:39.332Z,39.96
2018-03-24T03:28:39.311Z,39.91
2018-03-24T03:29:39.297Z,39.82
2018-03-24T03:30:39.328Z,39.9
2018-03-24T03:31:39.330Z,39.91
2018-03-24T03:32:39.306Z,39.8
2018-03-24T03:33:39.318Z,39.94
2018-03-24T03:34:39.320Z,39.93
2018-03-24T03:35:39.315Z,39.85
2018-03-24T03:36:39.312Z,39.91
2018-03-24T03:37:39.296Z,39.88
2018-03-24T03:38:39.286Z,39.85
2018-03-24T03:39:39.736Z,39.89
2018-03-24T03:40:39.353Z,39.88
2018-03-24T03:41:39.328Z,39.77
2018-03-24T03:42:39.326Z,39.99
2018-03-24T03:43:39.352Z,39.94
2018-03-24T03:44:39.344Z,39.83
2018-03-24T03:45:39.320Z,39.92
2018-03-24T03:46:39.312Z,39.91
2018-03-24T03:47:39.301Z,39.8
2018-03-24T03:48:39.289Z,39.91
2018-03-24T03:49:39.291Z,39.89
2018-03-24T03:50:39.274Z,39.81
2018-03-24T03:51:39.552Z,40.04
2018-03-24T03:52:39.269Z,39.93
2018-03-24T03:53:39.313Z,39.83
2018-03-24T03:54:39.293Z,39.95
2018-03-24T03:55:39.313Z,39.86
2018-03-24T03:56:39.356Z,39.79
2018-03-24T03:57:39.314Z,39.99
2018-03-24T03:58:39.347Z,39.93
2018-03-24T03:59:39.296Z,39.82
2018-03-24T04:00:39.308Z,39.93
2018-03-24T04:01:39.272Z,39.92
2018-03-24T04:02:39.269Z,39.81
2018-03-24T04:03:39.294Z,39.91
2018-03-24T04:04:39.285Z,39.84
2018-03-24T04:05:39.273Z,39.79
2018-03-24T04:06:39.330Z,39.96
2018-03-24T04:07:39.303Z,39.91
2018-03-24T04:08:39.371Z,39.77
2018-03-24T04:09:39.274Z,39.92
2018-03-24T04:10:39.301Z,39.86
2018-03-24T04:11:39.344Z,39.75
2018-03-24T04:12:39.291Z,39.94
2018-03-24T04:13:39.299Z,39.94
2018-03-24T04:14:39.305Z,39.8
2018-03-24T04:15:39.304Z,39.96
2018-03-24T04:16:39.319Z,39.92
2018-03-24T04:17:39.284Z,39.86
2018-03-24T04:18:39.296Z,39.97
2018-03-24T04:19:39.307Z,39.88
2018-03-24T04:20:39.348Z,39.8
2018-03-24T04:21:39.302Z,39.98
2018-03-24T04:22:39.304Z,39.93
2018-03-24T04:23:39.276Z,39.78
2018-03-24T04:24:39.264Z,39.94
2018-03-24T04:25:39.285Z,39.89
2018-03-24T04:26:39.318Z,39.86
2018-03-24T04:27:39.292Z,39.95
2018-03-24T04:28:39.371Z,39.91
2018-03-24T04:29:39.270Z,39.83
2018-03-24T04:30:39.304Z,39.96
2018-03-24T04:31:39.305Z,39.91
2018-03-24T04:32:39.314Z,39.79
2018-03-24T04:33:39.297Z,39.98
2018-03-24T04:34:39.292Z,39.95
2018-03-24T04:35:39.283Z,39.8
2018-03-24T04:36:39.314Z,39.99
2018-03-24T04:37:39.316Z,39.97
2018-03-24T04:38:39.276Z,39.84
2018-03-24T04:39:39.321Z,39.95
2018-03-24T04:40:39.645Z,39.97
2018-03-24T04:41:39.277Z,39.84
2018-03-24T04:42:39.299Z,39.96
2018-03-24T04:43:39.300Z,39.89
2018-03-24T04:44:39.277Z,39.79
2018-03-24T04:45:39.332Z,39.95
2018-03-24T04:46:39.351Z,39.92
2018-03-24T04:47:39.277Z,39.8
2018-03-24T04:48:39.283Z,39.96
2018-03-24T04:49:39.272Z,39.87
2018-03-24T04:50:39.557Z,39.77
2018-03-24T04:51:39.272Z,39.93
2018-03-24T04:52:39.310Z,39.91
2018-03-24T04:53:39.283Z,39.84
2018-03-24T04:54:39.285Z,39.93
2018-03-24T04:55:39.286Z,39.93
2018-03-24T04:56:39.296Z,39.79
2018-03-24T04:57:39.269Z,39.96
2018-03-24T04:58:39.264Z,39.91
2018-03-24T04:59:39.297Z,39.84
2018-03-24T05:00:39.255Z,39.97
2018-03-24T05:01:39.293Z,39.89
2018-03-24T05:02:39.259Z,39.79
2018-03-24T05:03:39.322Z,39.92
2018-03-24T05:04:39.291Z,39.86
2018-03-24T05:05:39.296Z,39.83
2018-03-24T05:06:39.278Z,39.95
2018-03-24T05:07:39.364Z,39.93
2018-03-24T05:08:39.286Z,39.91
2018-03-24T05:09:39.714Z,39.97
2018-03-24T05:10:39.293Z,39.93
2018-03-24T05:11:39.266Z,39.93
2018-03-24T05:12:39.361Z,40.02
2018-03-24T05:13:39.307Z,40.05
2018-03-24T05:14:39.357Z,39.93
2018-03-24T05:15:39.291Z,39.98
2018-03-24T05:16:39.303Z,39.99
2018-03-24T05:17:39.270Z,39.91
2018-03-24T05:18:39.285Z,39.96
2018-03-24T05:19:39.563Z,39.89
2018-03-24T05:20:39.280Z,39.85
2018-03-24T05:21:39.282Z,39.94
2018-03-24T05:22:39.289Z,39.89
2018-03-24T05:23:39.338Z,39.89
2018-03-24T05:24:39.309Z,39.84
2018-03-24T05:25:39.303Z,39.85
2018-03-24T05:26:39.286Z,39.78
2018-03-24T05:27:39.260Z,39.76
2018-03-24T05:28:39.272Z,39.68
2018-03-24T05:29:39.264Z,39.64
2018-03-24T05:30:39.308Z,39.69
2018-03-24T05:31:39.249Z,39.7
2018-03-24T05:32:39.253Z,39.67
2018-03-24T05:33:39.289Z,39.7
2018-03-24T05:34:39.281Z,39.71
2018-03-24T05:35:39.268Z,39.63
2018-03-24T05:36:39.294Z,39.63
2018-03-24T05:37:39.261Z,39.69
2018-03-24T05:38:39.270Z,39.68
2018-03-24T05:39:39.297Z,39.64
2018-03-24T05:40:39.261Z,39.63
2018-03-24T05:41:39.410Z,39.7
2018-03-24T05:42:39.279Z,39.64
2018-03-24T05:43:39.326Z,39.73
2018-03-24T05:44:39.255Z,39.6
2018-03-24T05:45:39.294Z,39.63
2018-03-24T05:46:39.293Z,39.63
2018-03-24T05:47:39.258Z,39.59
2018-03-24T05:48:40.056Z,39.67
2018-03-24T05:49:39.288Z,39.73
2018-03-24T05:50:39.277Z,39.69
2018-03-24T05:51:39.281Z,39.64
2018-03-24T05:52:39.301Z,39.76
2018-03-24T05:53:39.245Z,39.57
2018-03-24T05:54:39.279Z,39.66
2018-03-24T05:55:39.271Z,39.61
2018-03-24T05:56:39.239Z,39.68
2018-03-24T05:57:39.591Z,39.58
2018-03-24T05:58:39.283Z,39.71
2018-03-24T05:59:39.248Z,39.63
2018-03-24T06:00:39.291Z,39.59
2018-03-24T06:01:39.284Z,39.75
2018-03-24T06:02:39.291Z,39.67
2018-03-24T06:03:39.256Z,39.64
2018-03-24T06:04:39.270Z,39.67
2018-03-24T06:05:39.265Z,39.62
2018-03-24T06:06:39.278Z,39.74
2018-03-24T06:07:39.310Z,39.68
2018-03-24T06:08:39.431Z,39.76
2018-03-24T06:09:39.286Z,39.66
2018-03-24T06:10:39.662Z,39.75
2018-03-24T06:11:39.260Z,39.66
2018-03-24T06:12:39.290Z,39.67
2018-03-24T06:13:39.302Z,39.66
2018-03-24T06:14:39.257Z,39.65
2018-03-24T06:15:39.320Z,39.69
2018-03-24T06:16:39.279Z,39.73
2018-03-24T06:17:39.238Z,39.65
2018-03-24T06:18:39.265Z,39.66
2018-03-24T06:19:39.246Z,39.65
2018-03-24T06:20:39.242Z,39.73
2018-03-24T06:21:39.243Z,39.69
2018-03-24T06:22:39.242Z,39.68
2018-03-24T06:23:39.243Z,39.58
2018-03-24T06:24:39.268Z,39.69
2018-03-24T06:25:39.276Z,39.63
2018-03-24T06:26:39.253Z,39.62
2018-03-24T06:27:39.251Z,39.67
2018-03-24T06:28:39.231Z,39.6
2018-03-24T06:29:39.359Z,39.64
2018-03-24T06:30:39.251Z,39.62
2018-03-24T06:31:39.263Z,39.68
2018-03-24T06:32:39.265Z,39.62
2018-03-24T06:33:39.255Z,39.62
2018-03-24T06:34:39.282Z,39.68
2018-03-24T06:35:39.234Z,39.56
2018-03-24T06:36:39.285Z,39.6
2018-03-24T06:37:39.361Z,39.6
2018-03-24T06:38:39.254Z,39.59
2018-03-24T06:39:39.321Z,39.57
2018-03-24T06:40:39.302Z,39.63
2018-03-24T06:41:39.249Z,39.51
2018-03-24T06:42:39.242Z,39.61
2018-03-24T06:43:39.240Z,39.51
2018-03-24T06:44:39.247Z,39.5
2018-03-24T06:45:39.221Z,39.52
2018-03-24T06:46:39.294Z,39.54
2018-03-24T06:47:39.231Z,39.49
2018-03-24T06:48:39.226Z,39.61
2018-03-24T06:49:39.248Z,39.61
2018-03-24T06:50:39.309Z,39.44
2018-03-24T06:51:39.231Z,39.55
2018-03-24T06:52:39.252Z,39.6
2018-03-24T06:53:39.226Z,39.55
2018-03-24T06:54:39.240Z,39.54
2018-03-24T06:55:39.242Z,39.53
2018-03-24T06:56:39.257Z,39.56
2018-03-24T06:57:39.233Z,39.54
2018-03-24T06:58:39.262Z,39.53
2018-03-24T06:59:39.265Z,39.51
2018-03-24T07:00:39.413Z,39.47
2018-03-24T07:01:39.234Z,39.54
2018-03-24T07:02:39.216Z,39.44
2018-03-24T07:03:39.234Z,39.5
2018-03-24T07:04:39.257Z,39.55
2018-03-24T07:05:39.281Z,39.45
2018-03-24T07:06:39.240Z,39.45
2018-03-24T07:07:39.218Z,39.58
2018-03-24T07:08:39.262Z,39.43
2018-03-24T07:09:39.251Z,39.49
2018-03-24T07:10:39.217Z,39.55
2018-03-24T07:11:39.246Z,39.49
2018-03-24T07:12:39.248Z,39.44
2018-03-24T07:13:39.234Z,39.57
2018-03-24T07:14:39.228Z,39.43
2018-03-24T07:15:39.232Z,39.47
2018-03-24T07:16:39.241Z,39.41
2018-03-24T07:17:39.226Z,39.46
2018-03-24T07:18:39.227Z,39.53
2018-03-24T07:19:39.077Z,39.47
2018-03-24T07:20:39.203Z,39.48
2018-03-24T07:21:39.228Z,39.5
2018-03-24T07:22:39.243Z,39.47
2018-03-24T07:23:39.258Z,39.48
2018-03-24T07:24:39.224Z,39.47
2018-03-24T07:25:39.235Z,39.49
2018-03-24T07:26:39.219Z,39.44
2018-03-24T07:27:39.249Z,39.49
2018-03-24T07:28:39.225Z,39.5
2018-03-24T07:29:39.215Z,39.47
2018-03-24T07:30:39.222Z,39.52
2018-03-24T07:31:39.237Z,39.44
2018-03-24T07:32:39.199Z,39.47
2018-03-24T07:33:39.208Z,39.46
2018-03-24T07:34:39.207Z,39.51
2018-03-24T07:35:39.226Z,39.45
2018-03-24T07:36:39.220Z,39.52
2018-03-24T07:37:39.195Z,39.4
2018-03-24T07:38:39.270Z,39.39
2018-03-24T07:39:39.248Z,39.44
2018-03-24T07:40:39.313Z,39.48
2018-03-24T07:41:39.290Z,39.48
2018-03-24T07:42:39.253Z,39.44
2018-03-24T07:43:39.245Z,39.4
2018-03-24T07:44:39.234Z,39.4
2018-03-24T07:45:39.240Z,39.4
2018-03-24T07:46:39.237Z,39.42
2018-03-24T07:47:39.764Z,39.38
2018-03-24T07:48:39.244Z,39.4
2018-03-24T07:49:39.285Z,39.43
2018-03-24T07:50:39.230Z,39.37
2018-03-24T07:51:39.225Z,39.33
2018-03-24T07:52:39.235Z,39.37
2018-03-24T07:53:39.210Z,39.38
2018-03-24T07:54:39.251Z,39.37
2018-03-24T07:55:39.220Z,39.4
2018-03-24T07:56:39.258Z,39.34
2018-03-24T07:57:39.182Z,39.44
2018-03-24T07:58:39.227Z,39.37
2018-03-24T07:59:39.208Z,39.35
2018-03-24T08:00:39.241Z,39.31
2018-03-24T08:01:39.299Z,39.37
2018-03-24T08:02:39.221Z,39.35
2018-03-24T08:03:39.215Z,39.37
2018-03-24T08:04:39.251Z,39.36
2018-03-24T08:05:39.204Z,39.29
2018-03-24T08:06:39.221Z,39.39
2018-03-24T08:07:39.214Z,39.32
2018-03-24T08:08:39.201Z,39.33
2018-03-24T08:09:39.660Z,39.38
2018-03-24T08:10:39.239Z,39.35
2018-03-24T08:11:39.233Z,39.29
2018-03-24T08:12:39.271Z,39.38
2018-03-24T08:13:39.208Z,39.38
2018-03-24T08:14:39.206Z,39.29
2018-03-24T08:15:39.215Z,39.34
2018-03-24T08:16:39.242Z,39.3
2018-03-24T08:17:39.196Z,39.28
2018-03-24T08:18:39.221Z,39.33
2018-03-24T08:19:39.196Z,39.32
2018-03-24T08:20:39.226Z,39.28
2018-03-24T08:21:39.231Z,39.33
2018-03-24T08:22:39.228Z,39.34
2018-03-24T08:23:39.204Z,39.27
2018-03-24T08:24:39.216Z,39.24
2018-03-24T08:25:39.241Z,39.31
2018-03-24T08:26:39.269Z,39.26
2018-03-24T08:27:39.245Z,39.3
2018-03-24T08:28:39.213Z,39.31
2018-03-24T08:29:39.192Z,39.3
2018-03-24T08:30:39.308Z,39.28
2018-03-24T08:31:39.240Z,39.33
2018-03-24T08:32:39.205Z,39.28
2018-03-24T08:33:39.181Z,39.3
2018-03-24T08:34:39.193Z,39.3
2018-03-24T08:35:39.201Z,39.31
2018-03-24T08:36:39.206Z,39.26
2018-03-24T08:37:39.198Z,39.27
2018-03-24T08:38:39.226Z,39.31
2018-03-24T08:39:39.187Z,39.3
2018-03-24T08:40:39.204Z,39.27
2018-03-24T08:41:39.216Z,39.29
2018-03-24T08:42:39.228Z,39.25
2018-03-24T08:43:39.205Z,39.31
2018-03-24T08:44:39.471Z,39.3
2018-03-24T08:45:39.208Z,39.25
2018-03-24T08:46:39.221Z,39.27
2018-03-24T08:47:39.193Z,39.23
2018-03-24T08:48:39.217Z,39.26
2018-03-24T08:49:39.204Z,39.28
2018-03-24T08:50:39.178Z,39.23
2018-03-24T08:51:39.257Z,39.3
2018-03-24T08:52:39.189Z,39.29
2018-03-24T08:53:39.194Z,39.24
2018-03-24T08:54:39.199Z,39.22
2018-03-24T08:55:39.194Z,39.29
2018-03-24T08:56:39.303Z,39.24
2018-03-24T08:57:39.202Z,39.25
2018-03-24T08:58:39.190Z,39.2
2018-03-24T08:59:39.180Z,39.22
2018-03-24T09:00:39.249Z,39.24
2018-03-24T09:01:39.209Z,39.25
2018-03-24T09:02:39.207Z,39.2
2018-03-24T09:03:39.208Z,39.28
2018-03-24T09:04:39.193Z,39.24
2018-03-24T09:05:39.185Z,39.23
2018-03-24T09:06:39.202Z,39.3
2018-03-24T09:07:39.186Z,39.28
2018-03-24T09:08:39.192Z,39.19
2018-03-24T09:09:39.176Z,39.25
2018-03-24T09:10:39.194Z,39.28
2018-03-24T09:11:39.165Z,39.24
2018-03-24T09:12:39.197Z,39.26
2018-03-24T09:13:39.210Z,39.35
2018-03-24T09:14:39.214Z,39.37
2018-03-24T09:15:39.184Z,39.75
2018-03-24T09:16:39.198Z,39.76
2018-03-24T09:17:39.187Z,39.78
2018-03-24T09:18:39.207Z,39.74
2018-03-24T09:19:39.187Z,39.55
2018-03-24T09:20:39.240Z,39.59
2018-03-24T09:21:39.221Z,39.64
2018-03-24T09:22:39.188Z,39.43
2018-03-24T09:23:39.213Z,39.72
2018-03-24T09:24:39.219Z,39.3
2018-03-24T09:25:39.205Z,39.36
2018-03-24T09:26:39.081Z,39.31
2018-03-24T09:27:39.192Z,39.4
2018-03-24T09:28:39.184Z,39.36
2018-03-24T09:29:39.206Z,39.37
2018-03-24T09:30:39.185Z,39.6
2018-03-24T09:31:39.190Z,39.75
2018-03-24T09:32:39.179Z,39.71
2018-03-24T09:33:39.196Z,39.4
2018-03-24T09:34:39.186Z,39.43
2018-03-24T09:35:39.184Z,39.39
2018-03-24T09:36:39.163Z,39.35
2018-03-24T09:37:39.252Z,39.39
2018-03-24T09:38:39.177Z,39.31
2018-03-24T09:39:39.223Z,39.33
2018-03-24T09:40:39.210Z,39.4
2018-03-24T09:41:39.169Z,39.22
2018-03-24T09:42:39.192Z,39.28
2018-03-24T09:43:39.185Z,39.26
2018-03-24T09:44:39.169Z,39.18
2018-03-24T09:45:39.178Z,39.24
2018-03-24T09:46:39.166Z,39.22
2018-03-24T09:47:39.181Z,39.23
2018-03-24T09:48:39.160Z,39.29
2018-03-24T09:49:39.170Z,39.24
2018-03-24T09:50:39.184Z,39.22
2018-03-24T09:51:39.253Z,39.26
2018-03-24T09:52:39.380Z,39.26
2018-03-24T09:53:39.174Z,39.17
2018-03-24T09:54:39.183Z,39.26
2018-03-24T09:55:39.187Z,39.18
2018-03-24T09:56:39.159Z,39.16
2018-03-24T09:57:39.187Z,39.19
2018-03-24T09:58:39.177Z,39.18
2018-03-24T09:59:39.194Z,39.17
2018-03-24T10:00:39.170Z,39.19
2018-03-24T10:01:39.225Z,39.14
2018-03-24T10:02:39.153Z,39.16
2018-03-24T10:03:39.167Z,39.26
2018-03-24T10:04:39.171Z,39.24
2018-03-24T10:05:39.169Z,39.21
2018-03-24T10:06:39.180Z,39.26
2018-03-24T10:07:39.159Z,39.22
2018-03-24T10:08:39.191Z,39.15
2018-03-24T10:09:39.138Z,39.22
2018-03-24T10:10:39.186Z,39.17
2018-03-24T10:11:39.165Z,39.18
2018-03-24T10:12:39.157Z,39.23
2018-03-24T10:13:39.171Z,39.21
2018-03-24T10:14:39.200Z,39.15
2018-03-24T10:15:39.169Z,39.22
2018-03-24T10:16:39.343Z,39.2
2018-03-24T10:17:39.250Z,39.13
2018-03-24T10:18:39.200Z,39.2
2018-03-24T10:19:39.173Z,39.2
2018-03-24T10:20:39.162Z,39.15
2018-03-24T10:21:39.184Z,39.18
2018-03-24T10:22:39.189Z,39.18
2018-03-24T10:23:39.160Z,39.12
2018-03-24T10:24:39.166Z,39.2
2018-03-24T10:25:39.186Z,39.12
2018-03-24T10:26:39.193Z,39.1
2018-03-24T10:27:39.218Z,39.17
2018-03-24T10:28:39.190Z,39.14
2018-03-24T10:29:39.159Z,39.09
2018-03-24T10:30:39.230Z,39.14
2018-03-24T10:31:39.255Z,39.11
2018-03-24T10:32:39.182Z,39.08
2018-03-24T10:33:39.157Z,39.11
2018-03-24T10:34:39.163Z,39.1
2018-03-24T10:35:39.158Z,39.08
2018-03-24T10:36:39.148Z,39.11
2018-03-24T10:37:39.192Z,39.1
2018-03-24T10:38:39.169Z,39.06
2018-03-24T10:39:39.180Z,39.1
2018-03-24T10:40:39.193Z,39.08
2018-03-24T10:41:39.206Z,39.03
2018-03-24T10:42:39.159Z,39.13
2018-03-24T10:43:39.222Z,39.16
2018-03-24T10:44:39.156Z,39.06
2018-03-24T10:45:39.150Z,39.09
2018-03-24T10:46:39.157Z,39.05
2018-03-24T10:47:39.229Z,39.03
2018-03-24T10:48:39.160Z,39.1
2018-03-24T10:49:39.147Z,39.05
2018-03-24T10:50:39.205Z,39.03
2018-03-24T10:51:39.197Z,39.23
2018-03-24T10:52:39.303Z,39.19
2018-03-24T10:53:39.152Z,39.31
2018-03-24T10:54:39.161Z,39.6
2018-03-24T10:55:39.145Z,39.53
2018-03-24T10:56:39.152Z,39.43
2018-03-24T10:57:39.192Z,39.68
2018-03-24T10:58:39.157Z,39.47
2018-03-24T10:59:39.172Z,39.69
2018-03-24T11:00:39.186Z,39.79
2018-03-24T11:01:39.169Z,39.87
2018-03-24T11:02:39.144Z,39.8
2018-03-24T11:03:39.164Z,40
2018-03-24T11:04:39.137Z,40.04
2018-03-24T11:05:39.162Z,39.99
2018-03-24T11:06:39.126Z,40.13
2018-03-24T11:07:39.178Z,40.03
2018-03-24T11:08:39.192Z,39.98
2018-03-24T11:09:39.153Z,40.11
2018-03-24T11:10:39.222Z,39.94
2018-03-24T11:11:39.198Z,40.06
2018-03-24T11:12:39.230Z,40.04
2018-03-24T11:13:39.219Z,39.91
2018-03-24T11:14:39.173Z,39.85
2018-03-24T11:15:39.163Z,40.02
2018-03-24T11:16:39.196Z,39.79
2018-03-24T11:17:39.160Z,39.8
2018-03-24T11:18:39.186Z,40.05
2018-03-24T11:19:39.184Z,39.89
2018-03-24T11:20:39.160Z,39.95
2018-03-24T11:21:39.165Z,40.07
2018-03-24T11:22:39.166Z,40.05
2018-03-24T11:23:39.150Z,39.95
2018-03-24T11:24:39.186Z,39.99
2018-03-24T11:25:39.165Z,40.01
2018-03-24T11:26:39.156Z,40.11
2018-03-24T11:27:39.199Z,39.99
2018-03-24T11:28:39.160Z,39.78
2018-03-24T11:29:39.156Z,39.86
2018-03-24T11:30:39.152Z,39.93
2018-03-24T11:31:39.142Z,39.8
2018-03-24T11:32:39.217Z,39.93
2018-03-24T11:33:39.161Z,40.03
2018-03-24T11:34:39.192Z,40
2018-03-24T11:35:39.153Z,39.98
2018-03-24T11:36:39.157Z,40.04
2018-03-24T11:37:39.160Z,39.77
2018-03-24T11:38:39.137Z,39.95
2018-03-24T11:39:39.154Z,39.96
2018-03-24T11:40:39.145Z,39.81
2018-03-24T11:41:39.147Z,39.81
2018-03-24T11:42:39.185Z,40.06
2018-03-24T11:43:39.160Z,39.89
2018-03-24T11:44:39.187Z,39.87
2018-03-24T11:45:39.156Z,39.74
2018-03-24T11:46:39.188Z,39.37
2018-03-24T11:47:39.129Z,39.4
2018-03-24T11:48:39.162Z,39.39
2018-03-24T11:49:39.183Z,39.4
2018-03-24T11:50:39.126Z,39.32
2018-03-24T11:51:39.190Z,39.41
2018-03-24T11:52:39.167Z,39.44
2018-03-24T11:53:39.207Z,39.31
2018-03-24T11:54:39.152Z,39.36
2018-03-24T11:55:39.137Z,39.35
2018-03-24T11:56:39.223Z,39.31
2018-03-24T11:57:39.140Z,39.36
2018-03-24T11:58:39.236Z,39.28
2018-03-24T11:59:39.161Z,39.36
2018-03-24T12:00:39.128Z,39.31
2018-03-24T12:01:39.209Z,39.37
2018-03-24T12:02:39.118Z,39.28
2018-03-24T12:03:39.232Z,39.27
2018-03-24T12:04:39.173Z,39.35
2018-03-24T12:05:39.117Z,39.3
2018-03-24T12:06:39.121Z,39.32
2018-03-24T12:07:39.142Z,39.3
2018-03-24T12:08:39.103Z,39.24
2018-03-24T12:09:39.131Z,39.25
2018-03-24T12:10:39.196Z,39.29
2018-03-24T12:11:39.160Z,39.25
2018-03-24T12:12:39.152Z,39.18
2018-03-24T12:13:39.144Z,39.3
2018-03-24T12:14:39.149Z,39.22
2018-03-24T12:15:39.182Z,39.21
2018-03-24T12:16:39.149Z,39.3
2018-03-24T12:17:39.156Z,39.36
2018-03-24T12:18:39.176Z,39.42
2018-03-24T12:19:39.159Z,39.39
2018-03-24T12:20:39.114Z,39.4
2018-03-24T12:21:39.268Z,39.44
2018-03-24T12:22:39.153Z,39.42
2018-03-24T12:23:39.180Z,39.42
2018-03-24T12:24:39.165Z,39.47
2018-03-24T12:25:39.209Z,39.46
2018-03-24T12:26:39.148Z,39.37
2018-03-24T12:27:39.113Z,39.46
2018-03-24T12:28:39.155Z,39.46
2018-03-24T12:29:39.211Z,39.43
2018-03-24T12:30:39.144Z,39.43
2018-03-24T12:31:39.220Z,39.43
2018-03-24T12:32:39.328Z,39.39
2018-03-24T12:33:39.125Z,39.44
2018-03-24T12:34:39.113Z,39.43
2018-03-24T12:35:39.179Z,39.41
2018-03-24T12:36:39.207Z,39.4
2018-03-24T12:37:39.223Z,39.4
2018-03-24T12:38:39.215Z,39.36
2018-03-24T12:39:39.123Z,39.47
2018-03-24T12:40:39.171Z,39.39
2018-03-24T12:41:39.114Z,39.34
2018-03-24T12:42:39.205Z,39.47
2018-03-24T12:43:39.227Z,39.42
2018-03-24T12:44:39.242Z,39.37
2018-03-24T12:45:39.146Z,39.47
2018-03-24T12:46:39.105Z,39.42
2018-03-24T12:47:39.118Z,39.34
2018-03-24T12:48:39.213Z,39.44
2018-03-24T12:49:39.111Z,39.39
2018-03-24T12:50:39.145Z,39.35
2018-03-24T12:51:39.194Z,39.41
2018-03-24T12:52:39.149Z,39.36
2018-03-24T12:53:39.128Z,39.35
2018-03-24T12:54:39.119Z,39.45
2018-03-24T12:55:39.130Z,39.44